Notice: Undefined index: language in /home/u908952976/domains/airgaviota-va.com/public_html/vam/index.php on line 25
AirGaviota-VA

... VIRTUAL FLIGHT...OUR PASSION



 METAR AND TAF INFORMATION

Deprecated: The each() function is deprecated. This message will be suppressed on further calls in /home/u908952976/domains/airgaviota-va.com/public_html/vam/helpers/get_metar.php on line 20
METAR FOR MUCC
ADDS - METARS form results

(2359 UTC 31 July 2021)
Data provider http://aviationweather.gov/metar/data/
 
Forecast for: MUCC (CANAGUA , CU)
Text: MUCC 312300Z 0100/0124 08012KT 9000 SCT020
Forecast period: 0000 UTC 01 August 2021 to 0000 UTC 02 August 2021
Forecast type: FROM: standard forecast or significant change
Winds: from the E (80 degrees) at 14 MPH (12 knots; 6.2 m/s)
Visibility: 6 miles (9 km)
Ceiling: at least 12,000 feet AGL
Clouds: scattered clouds at 2000 feet AGL
Weather: no significant weather forecast for this period

 AIRPORT MAP

 RUNWAY INFORMATION
Runway 08 Runway length 9842 ft Runway width 148 ft
Runway elevation 10 ft Runway displaced threshold 0 ft Runway heading 71
Runway 26 Runway length 9842 ft Runway width 148 ft
Runway elevation 13 ft Runway displaced threshold 0 ft Runway heading 251

 AIRPORT FREQUENCIES
Type A/G Name RDO Frequency 340.7 MHZ
Type TWR Name APP/TWR Frequency 118.8 MHZ

 AIRPORT NEAR NAVIGATION AIDS
Type NDB Name Jardines Del Rey Frequency 382 KHZ
Type VOR-DME Name Jardines Del Rey Frequency 117800 KHZ